Time;durP1;ratioP1;P1;durP2;ratioP2;P2;SDS_P1;SDS_P2;PMS_P1;PMS_P2;Temp;Humidity;BMP_temperature;BMP_pressure;BME280_temperature;BME280_humidity;BME280_pressure;Samples;Min_cycle;Max_cycle;Signal;HPM_P1;HPM_P2
2022/09/08 00:00:41;;;;;;;0.60;0.60;;;;;;;7.28;88.65;98992.94;5113016;28;20047;-83
2022/09/08 00:03:13;;;;;;;0.60;0.60;;;;;;;7.35;88.61;98988.34;5114297;28;20089;-84
2022/09/08 00:05:48;;;;;;;0.60;0.60;;;;;;;7.37;88.83;98991.63;5114085;28;20105;-84
2022/09/08 00:08:20;;;;;;;0.60;0.60;;;;;;;7.37;88.90;98990.81;5113282;28;20067;-84
2022/09/08 00:10:50;;;;;;;0.50;0.50;;;;;;;7.35;88.91;98998.25;5114030;28;20048;-85
2022/09/08 00:13:18;;;;;;;0.50;0.50;;;;;;;7.28;88.61;98990.28;5114721;28;20410;-85
2022/09/08 00:15:45;;;;;;;0.60;0.60;;;;;;;7.25;88.67;98998.78;5112438;28;20107;-85
2022/09/08 00:18:13;;;;;;;0.60;0.60;;;;;;;7.28;88.70;98995.63;5112977;28;20043;-83
2022/09/08 00:20:40;;;;;;;0.60;0.60;;;;;;;7.31;89.06;98997.06;5113784;28;20050;-84
2022/09/08 00:23:09;;;;;;;0.60;0.60;;;;;;;7.30;89.21;99000.78;5114204;28;20054;-84
2022/09/08 00:25:36;;;;;;;0.60;0.60;;;;;;;7.32;89.14;98991.47;5094969;28;20505;-84
2022/09/08 00:28:03;;;;;;;0.50;0.50;;;;;;;7.35;89.07;98996.41;5114053;28;20043;-84
2022/09/08 00:30:31;;;;;;;0.50;0.50;;;;;;;7.34;88.92;98996.59;5112494;28;20477;-85
2022/09/08 00:32:58;;;;;;;0.55;0.55;;;;;;;7.35;88.76;98993.72;5113476;28;20084;-84
2022/09/08 00:35:25;;;;;;;0.60;0.60;;;;;;;7.31;88.38;98991.69;5112817;28;20051;-85
2022/09/08 00:37:52;;;;;;;0.50;0.50;;;;;;;7.27;87.94;99002.06;5113134;28;20056;-84
2022/09/08 00:40:21;;;;;;;0.50;0.50;;;;;;;7.31;87.89;99003.25;5113735;28;20071;-84
2022/09/08 00:43:01;;;;;;;0.52;0.52;;;;;;;7.29;87.94;99005.34;5113326;28;20040;-84
2022/09/08 00:45:37;;;;;;;0.60;0.60;;;;;;;7.30;87.85;99001.59;5112984;28;20146;-84
2022/09/08 00:48:06;;;;;;;0.60;0.60;;;;;;;7.30;87.78;99004.28;5113975;28;20077;-85
2022/09/08 00:50:33;;;;;;;0.50;0.50;;;;;;;7.26;87.27;98997.72;5113586;28;20047;-84
2022/09/08 00:53:06;;;;;;;0.60;0.60;;;;;;;7.26;87.29;98999.59;5078526;28;20043;-84
2022/09/08 00:55:36;;;;;;;0.60;0.60;;;;;;;7.21;87.28;99000.25;5112601;28;20074;-84
2022/09/08 00:58:03;;;;;;;0.60;0.60;;;;;;;7.18;87.04;99002.56;5113500;28;20040;-85
2022/09/08 01:00:31;;;;;;;0.60;0.60;;;;;;;7.14;87.43;99002.19;5113439;28;20043;-84
2022/09/08 01:02:58;;;;;;;0.60;0.60;;;;;;;7.14;87.35;99000.34;5113461;28;20071;-85
2022/09/08 01:05:27;;;;;;;0.60;0.60;;;;;;;7.22;87.30;99004.59;5112254;28;20075;-84
2022/09/08 01:14:13;;;;;;;0.60;0.60;;;;;;;7.24;87.51;99007.03;5112621;28;20047;-84
2022/09/08 01:16:42;;;;;;;0.60;0.60;;;;;;;7.25;87.89;99006.00;5113175;28;20066;-85
2022/09/08 01:19:18;;;;;;;0.60;0.60;;;;;;;7.23;88.04;98995.50;5113369;27;20044;-84
2022/09/08 01:22:09;;;;;;;0.60;0.60;;;;;;;7.25;87.80;99006.00;5111889;28;20139;-85
2022/09/08 01:25:05;;;;;;;0.50;0.50;;;;;;;7.25;87.54;99011.38;5116485;28;20048;-84
2022/09/08 01:27:32;;;;;;;0.70;0.70;;;;;;;7.23;87.72;99011.59;5118761;28;20428;-83
2022/09/08 01:30:06;;;;;;;0.50;0.50;;;;;;;7.29;87.61;99018.78;5111537;28;20520;-85
2022/09/08 01:32:35;;;;;;;0.60;0.60;;;;;;;7.29;87.84;99010.72;5113191;28;20062;-85
2022/09/08 01:35:02;;;;;;;0.60;0.60;;;;;;;7.28;87.46;99013.63;5111559;28;20460;-84
2022/09/08 01:37:30;;;;;;;0.50;0.50;;;;;;;7.27;87.48;99020.84;5112579;28;20039;-85
2022/09/08 01:39:57;;;;;;;0.60;0.60;;;;;;;7.24;87.38;99013.25;5112377;28;20040;-84
2022/09/08 01:42:24;;;;;;;0.50;0.50;;;;;;;7.22;86.94;99015.34;5111403;28;20341;-84
2022/09/08 01:44:51;;;;;;;0.55;0.55;;;;;;;7.17;86.72;99012.50;5112456;28;20052;-84
2022/09/08 01:47:18;;;;;;;0.60;0.60;;;;;;;7.15;87.13;99020.75;5112519;28;20077;-84
2022/09/08 01:49:45;;;;;;;0.60;0.60;;;;;;;7.15;86.89;99018.06;5112532;28;20054;-84
2022/09/08 01:52:12;;;;;;;0.60;0.60;;;;;;;7.16;86.88;99021.56;5112627;28;20044;-85
2022/09/08 01:54:39;;;;;;;0.50;0.50;;;;;;;7.19;86.88;99031.88;5112816;28;20081;-85
2022/09/08 01:57:06;;;;;;;0.60;0.60;;;;;;;7.20;86.74;99028.16;5113046;28;20040;-86
2022/09/08 01:59:33;;;;;;;0.50;0.50;;;;;;;7.22;86.65;99026.06;5112310;28;20039;-86
2022/09/08 02:02:00;;;;;;;0.60;0.60;;;;;;;7.24;86.68;99023.16;5112115;28;20051;-85
2022/09/08 02:04:27;;;;;;;0.50;0.50;;;;;;;7.24;86.66;99025.81;5112202;28;20501;-85
2022/09/08 02:06:54;;;;;;;0.60;0.60;;;;;;;7.24;86.61;99018.63;5111410;28;20047;-83
2022/09/08 02:09:21;;;;;;;0.60;0.60;;;;;;;7.23;86.87;99025.00;5112243;28;20139;-85
2022/09/08 02:11:48;;;;;;;0.60;0.60;;;;;;;7.19;86.54;99026.53;5112517;28;20039;-85
2022/09/08 02:14:15;;;;;;;0.60;0.60;;;;;;;7.15;86.22;99028.81;5112791;28;20060;-84
2022/09/08 02:16:43;;;;;;;0.50;0.50;;;;;;;7.11;85.46;99030.28;5111840;28;20047;-85
2022/09/08 02:19:11;;;;;;;0.60;0.60;;;;;;;7.08;85.40;99036.09;5112124;28;20051;-85
2022/09/08 02:21:38;;;;;;;0.60;0.60;;;;;;;7.14;85.53;99039.75;5111616;28;20497;-83
2022/09/08 02:24:05;;;;;;;0.60;0.60;;;;;;;7.10;85.55;99039.38;5111832;28;20051;-85
2022/09/08 02:26:40;;;;;;;0.50;0.50;;;;;;;7.06;85.16;99038.19;5111900;28;20049;-85
2022/09/08 02:29:11;;;;;;;0.60;0.60;;;;;;;7.07;85.51;99045.19;5126247;28;20047;-84
2022/09/08 02:31:40;;;;;;;0.50;0.50;;;;;;;7.05;85.57;99038.41;5112517;28;20047;-84
2022/09/08 02:34:12;;;;;;;0.60;0.60;;;;;;;7.10;85.57;99041.25;5112136;28;20044;-84
2022/09/08 02:36:39;;;;;;;0.60;0.60;;;;;;;7.04;85.53;99040.28;5112034;28;20048;-83
2022/09/08 02:39:06;;;;;;;0.60;0.60;;;;;;;7.07;85.73;99047.06;5112317;28;20047;-84
2022/09/08 02:41:33;;;;;;;0.60;0.60;;;;;;;7.10;85.80;99046.63;5112698;28;20040;-84
2022/09/08 02:44:00;;;;;;;0.60;0.60;;;;;;;7.09;nan;99048.50;5112193;28;20042;-84
2022/09/08 02:46:27;;;;;;;0.55;0.55;;;;;;;7.05;85.52;99046.47;5112270;28;20067;-83
2022/09/08 02:48:54;;;;;;;0.50;0.50;;;;;;;7.09;85.61;99047.66;5093149;28;20043;-85
2022/09/08 02:51:30;;;;;;;0.50;0.50;;;;;;;7.04;85.42;99044.81;5111728;28;20063;-85
2022/09/08 02:53:57;;;;;;;0.50;0.50;;;;;;;7.06;85.19;99043.53;5111672;28;20043;-85
2022/09/08 02:56:25;;;;;;;0.60;0.60;;;;;;;7.01;84.89;99062.16;5111795;28;20498;-84
2022/09/08 02:58:54;;;;;;;0.50;0.50;;;;;;;6.97;84.93;99055.63;5111611;28;20043;-85
2022/09/08 03:01:22;;;;;;;0.60;0.60;;;;;;;6.95;84.99;99060.38;5111321;28;20039;-84
2022/09/08 03:03:49;;;;;;;0.50;0.50;;;;;;;6.98;85.31;99062.63;5111902;28;20051;-84
2022/09/08 03:06:18;;;;;;;0.60;0.60;;;;;;;7.02;85.38;99060.31;5110315;28;20051;-84
2022/09/08 03:08:49;;;;;;;0.50;0.50;;;;;;;7.03;85.12;99073.50;5111253;28;20044;-85
2022/09/08 03:11:16;;;;;;;0.50;0.50;;;;;;;7.01;85.17;99072.91;5111828;28;20075;-84
2022/09/08 03:13:44;;;;;;;0.50;0.50;;;;;;;7.00;85.22;99073.13;5124507;28;20048;-83
2022/09/08 03:16:11;;;;;;;0.50;0.50;;;;;;;7.00;85.00;99079.31;5112450;28;20060;-85
2022/09/08 03:18:38;;;;;;;0.60;0.60;;;;;;;7.00;85.10;99081.19;5115821;28;20067;-85
2022/09/08 03:21:08;;;;;;;0.60;0.60;;;;;;;7.01;85.28;99082.81;5115137;28;20058;-85
2022/09/08 03:23:35;;;;;;;0.60;0.60;;;;;;;7.02;85.22;99074.56;5114142;28;20054;-85
2022/09/08 03:26:12;;;;;;;0.60;0.60;;;;;;;7.02;84.92;99085.28;5114705;28;20078;-85
2022/09/08 03:28:39;;;;;;;0.60;0.60;;;;;;;7.02;84.95;99081.78;5115121;28;20134;-85
2022/09/08 03:31:16;;;;;;;0.60;0.60;;;;;;;7.05;84.93;99086.72;5114768;28;20044;-85
2022/09/08 03:33:44;;;;;;;0.60;0.60;;;;;;;7.02;84.50;99089.84;5114949;28;20414;-86
2022/09/08 03:36:12;;;;;;;0.60;0.60;;;;;;;7.01;84.62;99091.69;5115014;28;20051;-86
2022/09/08 03:38:40;;;;;;;0.60;0.60;;;;;;;7.04;84.59;99088.59;5097061;28;20432;-86
2022/09/08 03:41:09;;;;;;;0.60;0.60;;;;;;;7.04;84.74;99087.75;5114812;27;20044;-86
2022/09/08 03:43:36;;;;;;;0.60;0.60;;;;;;;7.00;84.61;99099.97;5114758;28;20059;-86
2022/09/08 03:46:07;;;;;;;0.60;0.60;;;;;;;6.96;85.17;99112.97;5114349;28;20043;-85
2022/09/08 03:48:35;;;;;;;0.60;0.60;;;;;;;6.94;85.25;99113.22;5114867;28;20392;-85
2022/09/08 03:51:16;;;;;;;0.60;0.60;;;;;;;6.94;85.57;99112.41;5113976;28;20039;-85
2022/09/08 03:53:44;;;;;;;0.60;0.60;;;;;;;6.91;86.11;99107.44;5114495;28;20075;-84
2022/09/08 03:56:13;;;;;;;0.70;0.70;;;;;;;6.94;86.41;99120.47;5114625;28;20057;-85
2022/09/08 03:58:41;;;;;;;0.60;0.60;;;;;;;6.93;86.41;99121.47;5114633;28;20074;-85
2022/09/08 04:01:14;;;;;;;0.60;0.60;;;;;;;7.00;86.28;99124.13;5114304;28;20066;-85
2022/09/08 04:03:41;;;;;;;0.60;0.60;;;;;;;7.02;86.27;99111.31;5096187;28;20535;-85
2022/09/08 04:06:13;;;;;;;0.60;0.60;;;;;;;7.13;86.43;99118.63;5114108;28;20115;-86
2022/09/08 04:08:40;;;;;;;0.60;0.60;;;;;;;7.09;86.13;99115.59;5113316;28;20138;-85
2022/09/08 04:11:08;;;;;;;0.60;0.60;;;;;;;7.11;85.73;99126.91;5114807;28;20104;-87
2022/09/08 04:13:35;;;;;;;0.50;0.50;;;;;;;7.04;85.38;99119.94;5114527;28;20257;-85
2022/09/08 04:16:03;;;;;;;0.50;0.50;;;;;;;6.97;85.71;99132.63;5113533;28;20051;-86
2022/09/08 04:18:32;;;;;;;0.57;0.57;;;;;;;6.91;86.24;99129.75;5113125;28;20533;-85
2022/09/08 04:21:02;;;;;;;0.60;0.60;;;;;;;6.83;86.42;99140.72;5095838;28;20063;-85
2022/09/08 04:23:30;;;;;;;0.60;0.60;;;;;;;6.71;86.82;99135.25;5113351;28;20056;-85
2022/09/08 04:26:03;;;;;;;0.60;0.60;;;;;;;6.76;87.11;99139.13;5113201;28;20063;-85
2022/09/08 04:28:30;;;;;;;0.60;0.60;;;;;;;6.82;87.32;99139.09;5112817;28;20571;-85
2022/09/08 04:30:58;;;;;;;0.60;0.60;;;;;;;6.92;87.26;99134.06;5112749;28;20143;-85
2022/09/08 04:33:27;;;;;;;0.60;0.60;;;;;;;6.98;87.10;99131.56;5113113;28;20085;-86
2022/09/08 04:35:54;;;;;;;0.60;0.60;;;;;;;7.05;87.14;99137.72;5113585;28;20093;-86
2022/09/08 04:38:41;;;;;;;0.60;0.60;;;;;;;7.12;86.71;99141.97;5113916;28;20142;-85
2022/09/08 04:41:11;;;;;;;0.60;0.60;;;;;;;7.16;86.24;99128.94;5119100;28;20134;-84
2022/09/08 04:43:38;;;;;;;0.60;0.60;;;;;;;7.29;86.30;99136.91;5113034;28;20093;-84
2022/09/08 04:46:07;;;;;;;0.60;0.60;;;;;;;7.49;85.72;99134.00;5111739;28;20055;-86
2022/09/08 04:48:36;;;;;;;0.60;0.60;;;;;;;7.48;84.63;99131.56;5111342;28;20047;-86
2022/09/08 04:51:04;;;;;;;0.60;0.60;;;;;;;7.49;84.01;99141.25;5116250;27;20048;-86
2022/09/08 04:53:32;;;;;;;0.60;0.60;;;;;;;7.46;83.81;99136.31;5122784;28;20078;-85
2022/09/08 04:56:03;;;;;;;0.60;0.60;;;;;;;7.38;83.87;99132.88;5124769;28;20067;-85
2022/09/08 04:58:33;;;;;;;0.50;0.50;;;;;;;7.31;84.15;99142.03;5124944;28;20047;-82
2022/09/08 05:01:04;;;;;;;0.60;0.60;;;;;;;7.29;84.37;99144.09;5120499;28;20134;-85
2022/09/08 05:03:31;;;;;;;0.60;0.60;;;;;;;7.28;84.68;99137.09;5119020;28;20044;-86
2022/09/08 05:06:21;;;;;;;0.60;0.60;;;;;;;7.37;84.86;99157.28;5116550;28;20452;-86
2022/09/08 05:08:50;;;;;;;0.50;0.50;;;;;;;7.29;85.03;99155.69;5117765;28;20044;-84
2022/09/08 05:11:22;;;;;;;0.50;0.50;;;;;;;7.15;85.56;99152.28;5115366;28;20075;-84
2022/09/08 05:13:51;;;;;;;0.60;0.60;;;;;;;7.14;86.12;99157.84;5063023;28;20044;-86
2022/09/08 05:16:20;;;;;;;0.60;0.60;;;;;;;7.08;86.45;99161.41;5113121;28;20138;-86
2022/09/08 05:18:49;;;;;;;0.60;0.60;;;;;;;7.02;86.53;99162.31;5112203;28;20413;-86
2022/09/08 05:21:17;;;;;;;0.60;0.60;;;;;;;7.01;86.84;99163.31;5111547;28;20108;-85
2022/09/08 05:23:51;;;;;;;0.60;0.60;;;;;;;7.03;86.34;99167.44;5112763;28;20051;-83
2022/09/08 05:26:19;;;;;;;0.60;0.60;;;;;;;7.08;85.98;99164.91;5112966;28;20052;-85
2022/09/08 05:28:47;;;;;;;0.60;0.60;;;;;;;7.06;85.33;99167.00;5112513;28;20052;-86
2022/09/08 05:31:20;;;;;;;0.60;0.60;;;;;;;7.12;85.87;99170.69;5114063;28;20043;-84
2022/09/08 05:33:47;;;;;;;0.60;0.60;;;;;;;7.35;86.01;99181.66;5112706;28;20046;-85
2022/09/08 05:36:18;;;;;;;0.60;0.60;;;;;;;7.45;85.18;99181.16;5112537;28;20074;-84
2022/09/08 05:38:45;;;;;;;0.60;0.60;;;;;;;7.53;84.81;99180.06;5115783;28;20051;-84
2022/09/08 05:41:13;;;;;;;0.60;0.60;;;;;;;7.66;84.25;99179.94;5115393;28;20062;-84
2022/09/08 05:43:40;;;;;;;0.60;0.60;;;;;;;7.66;83.54;99176.44;5119017;28;20062;-85
2022/09/08 05:46:08;;;;;;;0.60;0.60;;;;;;;7.65;83.60;99185.53;5116065;28;20406;-86
2022/09/08 05:48:43;;;;;;;0.60;0.60;;;;;;;7.58;83.87;99182.91;5117179;28;20073;-86
2022/09/08 05:51:11;;;;;;;0.60;0.60;;;;;;;7.44;83.17;99189.41;5120027;28;20122;-87
2022/09/08 05:53:38;;;;;;;0.60;0.60;;;;;;;7.47;82.54;99188.97;5111459;28;20580;-85
2022/09/08 05:56:08;;;;;;;0.60;0.60;;;;;;;7.51;82.37;99190.19;5111738;28;20055;-83
2022/09/08 05:58:35;;;;;;;0.60;0.60;;;;;;;7.46;81.41;99201.59;5111207;28;20044;-85
2022/09/08 06:01:08;;;;;;;0.60;0.60;;;;;;;7.41;81.00;99192.56;5111260;28;20139;-85
2022/09/08 06:03:36;;;;;;;0.60;0.60;;;;;;;7.40;80.79;99193.59;5111045;28;20494;-85
2022/09/08 06:06:07;;;;;;;0.60;0.60;;;;;;;7.50;80.00;99191.25;5111845;28;20112;-85
2022/09/08 06:08:37;;;;;;;0.60;0.60;;;;;;;7.81;79.71;99195.69;5112108;28;20052;-83
2022/09/08 06:11:04;;;;;;;0.70;0.70;;;;;;;8.13;78.92;99184.84;5110877;28;20501;-83
2022/09/08 06:13:32;;;;;;;0.60;0.60;;;;;;;8.28;77.58;99179.06;5112081;28;20051;-86
2022/09/08 06:16:08;;;;;;;0.60;0.60;;;;;;;8.42;77.43;99192.16;5111631;28;20056;-83
2022/09/08 06:18:37;;;;;;;0.60;0.60;;;;;;;8.46;77.37;99195.22;5111397;28;20104;-87
2022/09/08 06:21:33;;;;;;;0.60;0.60;;;;;;;8.52;76.61;99197.00;5049565;28;20095;-85
2022/09/08 06:24:03;;;;;;;0.60;0.60;;;;;;;8.49;75.83;99196.66;5048844;28;20067;-86
2022/09/08 06:27:07;;;;;;;0.60;0.60;;;;;;;8.53;75.99;99198.63;5048940;28;20073;-84
2022/09/08 06:29:45;;;;;;;0.60;0.60;;;;;;;8.45;74.20;99201.63;5049181;28;20064;-83
2022/09/08 06:32:25;;;;;;;0.50;0.50;;;;;;;8.09;72.92;99216.72;5032871;28;20052;-85
2022/09/08 06:34:55;;;;;;;0.60;0.60;;;;;;;7.88;73.36;99217.16;5032336;28;20041;-84
2022/09/08 06:37:28;;;;;;;0.70;0.70;;;;;;;7.87;74.29;99218.16;5032539;28;20396;-86
2022/09/08 06:40:03;;;;;;;0.60;0.60;;;;;;;8.00;74.30;99218.88;5104725;28;20058;-84
2022/09/08 06:42:45;;;;;;;0.70;0.70;;;;;;;8.15;74.97;99226.59;5112516;28;20409;-84
2022/09/08 06:45:20;;;;;;;0.70;0.70;;;;;;;8.24;74.38;99222.53;5111220;28;20051;-84
2022/09/08 06:47:52;;;;;;;0.70;0.70;;;;;;;8.31;74.30;99221.66;5111081;28;20455;-85
2022/09/08 06:50:20;;;;;;;0.60;0.60;;;;;;;8.48;74.01;99230.78;5118565;28;20092;-84
2022/09/08 06:52:49;;;;;;;0.70;0.70;;;;;;;8.67;74.38;99232.41;5115955;28;20056;-83
2022/09/08 06:55:37;;;;;;;0.60;0.60;;;;;;;8.96;74.15;99239.88;5114665;28;20165;-84
2022/09/08 06:58:26;;;;;;;0.60;0.60;;;;;;;8.86;73.63;99246.66;5098149;28;20097;-83
2022/09/08 07:01:29;;;;;;;0.60;0.60;;;;;;;8.56;74.02;99235.88;5116213;28;20052;-84
2022/09/08 07:04:11;;;;;;;0.60;0.60;;;;;;;8.40;75.05;99253.41;5115422;28;20071;-83
2022/09/08 07:06:46;;;;;;;0.60;0.60;;;;;;;8.27;75.81;99252.72;5113974;28;20056;-83
2022/09/08 07:09:28;;;;;;;0.60;0.60;;;;;;;8.24;77.14;99253.97;5115465;28;20047;-84
2022/09/08 07:12:07;;;;;;;0.60;0.60;;;;;;;8.40;77.60;99257.97;5115588;27;20096;-84
2022/09/08 07:14:55;;;;;;;0.70;0.70;;;;;;;8.59;76.74;99251.56;5114392;28;20048;-86
2022/09/08 07:17:55;;;;;;;0.70;0.70;;;;;;;8.82;76.39;99258.91;5114969;28;20069;-82
2022/09/08 07:20:26;;;;;;;0.60;0.60;;;;;;;9.09;74.23;99250.50;5115141;28;20417;-84
2022/09/08 07:23:16;;;;;;;0.70;0.70;;;;;;;9.22;73.02;99254.88;5114086;28;20205;-83
2022/09/08 07:25:54;;;;;;;0.80;0.80;;;;;;;9.26;72.35;99253.34;5113769;28;20050;-82
2022/09/08 07:28:26;;;;;;;0.70;0.70;;;;;;;9.37;71.04;99252.56;5114999;28;20139;-83
2022/09/08 07:30:56;;;;;;;0.70;0.70;;;;;;;9.91;70.74;99258.72;5113304;28;20051;-84
2022/09/08 07:33:30;;;;;;;0.70;0.70;;;;;;;10.32;69.01;99254.28;5114672;28;20051;-84
2022/09/08 07:36:15;;;;;;;0.60;0.60;;;;;;;10.08;69.30;99252.66;5114382;28;20093;-83
2022/09/08 07:38:49;;;;;;;0.60;0.60;;;;;;;9.88;69.66;99261.09;5114700;28;20521;-83
2022/09/08 07:41:35;;;;;;;0.60;0.60;;;;;;;9.58;70.67;99270.06;5113378;28;20048;-81
2022/09/08 07:44:14;;;;;;;0.60;0.60;;;;;;;9.20;70.90;99273.13;5114069;28;20565;-81
2022/09/08 07:47:06;;;;;;;0.50;0.50;;;;;;;8.91;71.93;99275.56;5112917;28;20512;-82
2022/09/08 07:49:58;;;;;;;0.50;0.50;;;;;;;8.65;73.55;99277.53;5114490;28;20410;-83
2022/09/08 07:52:34;;;;;;;0.60;0.60;;;;;;;8.63;74.39;99279.66;5095917;28;20058;-81
2022/09/08 07:55:07;;;;;;;0.60;0.60;;;;;;;8.65;74.35;99272.16;5113393;28;20048;-83
2022/09/08 07:57:56;;;;;;;0.60;0.60;;;;;;;8.94;73.43;99280.53;5114090;28;20055;-82
2022/09/08 08:00:34;;;;;;;0.60;0.60;;;;;;;8.98;72.98;99276.31;5112865;28;20070;-82
2022/09/08 08:03:09;;;;;;;0.70;0.70;;;;;;;9.14;72.79;99274.88;5112392;28;20136;-83
2022/09/08 08:05:47;;;;;;;0.80;0.80;;;;;;;9.61;71.32;99274.16;5114396;28;20146;-82
2022/09/08 08:08:35;;;;;;;0.80;0.80;;;;;;;10.68;68.38;99282.03;5095963;28;20043;-81
2022/09/08 08:11:39;;;;;;;0.70;0.70;;;;;;;11.19;63.10;99279.50;5112787;28;20090;-83
2022/09/08 08:14:21;;;;;;;0.80;0.80;;;;;;;10.82;63.74;99280.69;5033945;28;20040;-82
2022/09/08 08:16:54;;;;;;;0.60;0.60;;;;;;;11.23;63.67;99286.88;5050539;28;20087;-82
2022/09/08 08:19:25;;;;;;;0.60;0.60;;;;;;;11.02;64.03;99280.28;5050544;28;20118;-83
2022/09/08 08:22:05;;;;;;;0.60;0.60;;;;;;;10.46;66.80;99281.00;5033750;28;20059;-83
2022/09/08 08:25:14;;;;;;;0.50;0.50;;;;;;;9.92;69.52;99287.31;5050694;28;20072;-84
2022/09/08 08:28:05;;;;;;;0.60;0.60;;;;;;;9.36;70.48;99294.00;4991462;28;20053;-82
2022/09/08 08:30:45;;;;;;;0.50;0.50;;;;;;;9.06;70.75;99296.69;4991281;28;20077;-82
2022/09/08 08:33:17;;;;;;;0.60;0.60;;;;;;;8.86;71.33;99296.97;4991426;28;20047;-81
2022/09/08 08:36:12;;;;;;;0.60;0.60;;;;;;;8.93;72.34;99297.69;4975529;28;20081;-82
2022/09/08 08:38:45;;;;;;;0.60;0.60;;;;;;;8.99;71.42;99294.13;4975474;28;20548;-82
2022/09/08 08:41:27;;;;;;;0.70;0.70;;;;;;;9.30;71.11;99297.63;4982013;28;20473;-83
2022/09/08 08:44:22;;;;;;;0.90;0.90;;;;;;;11.35;64.66;99299.53;4977834;28;20076;-83
2022/09/08 08:47:20;;;;;;;0.80;0.80;;;;;;;12.25;59.85;99286.97;4991914;28;20137;-83
2022/09/08 08:50:15;;;;;;;1.00;1.00;;;;;;;13.25;56.26;99284.97;4991297;28;20050;-82
2022/09/08 08:53:07;;;;;;;0.80;0.80;;;;;;;13.70;56.11;99281.09;5030152;28;20140;-81
2022/09/08 08:55:40;;;;;;;0.50;0.50;;;;;;;13.59;56.18;99284.78;5030494;28;20045;-83
2022/09/08 08:58:25;;;;;;;0.50;0.50;;;;;;;12.36;57.98;99302.31;5030132;28;20060;-82
2022/09/08 09:01:21;;;;;;;0.50;0.50;;;;;;;11.47;60.77;99297.59;5053032;28;20047;-83
2022/09/08 09:04:18;;;;;;;0.45;0.45;;;;;;;10.64;64.24;99305.16;5094983;28;20055;-82
2022/09/08 09:07:23;;;;;;;0.50;0.50;;;;;;;10.07;65.84;99315.72;5112855;28;20069;-82
2022/09/08 09:10:03;;;;;;;0.50;0.50;;;;;;;9.52;65.97;99316.78;5113187;28;20138;-83
2022/09/08 09:12:56;;;;;;;0.50;0.50;;;;;;;9.41;68.12;99326.47;5113077;28;20051;-81
2022/09/08 09:15:42;;;;;;;0.50;0.50;;;;;;;9.43;69.45;99321.69;5016468;28;20049;-82
2022/09/08 09:18:40;;;;;;;0.60;0.60;;;;;;;9.41;69.62;99328.34;5049673;28;20562;-83
2022/09/08 09:21:53;;;;;;;0.60;0.60;;;;;;;9.73;70.02;99328.91;5033116;28;20061;-82
2022/09/08 09:24:50;;;;;;;0.60;0.60;;;;;;;10.18;70.26;99328.41;5010152;28;20046;-82
2022/09/08 09:27:48;;;;;;;0.70;0.70;;;;;;;11.08;67.02;99329.81;5010390;28;20076;-82
2022/09/08 09:30:30;;;;;;;0.50;0.50;;;;;;;10.89;65.50;99334.56;4994222;28;20140;-83
2022/09/08 09:33:34;;;;;;;0.50;0.50;;;;;;;10.50;65.51;99330.75;4993558;28;20060;-82
2022/09/08 09:36:31;;;;;;;0.60;0.60;;;;;;;10.18;66.37;99339.19;5009306;28;20524;-82
2022/09/08 09:39:11;;;;;;;0.60;0.60;;;;;;;10.29;67.97;99343.78;4994784;28;20069;-81
2022/09/08 09:41:41;;;;;;;0.60;0.60;;;;;;;10.37;67.52;99340.72;5010971;28;20456;-82
2022/09/08 09:44:27;;;;;;;0.60;0.60;;;;;;;10.65;66.23;99336.47;4993082;28;20083;-83
2022/09/08 09:47:28;;;;;;;0.70;0.70;;;;;;;10.62;65.41;99347.75;4970466;28;20045;-85
2022/09/08 09:49:55;;;;;;;0.75;0.75;;;;;;;12.23;62.32;99343.22;5009312;28;20485;-83
2022/09/08 09:52:31;;;;;;;0.70;0.70;;;;;;;12.48;61.22;99346.31;5037326;28;20052;-82
2022/09/08 09:55:41;;;;;;;0.70;0.70;;;;;;;12.44;59.33;99342.47;5068386;28;20060;-82
2022/09/08 09:58:36;;;;;;;0.60;0.60;;;;;;;12.42;59.62;99341.06;5046662;28;20453;-83
2022/09/08 10:01:30;;;;;;;0.90;0.90;;;;;;;13.14;57.33;99353.66;5051963;28;20056;-82
2022/09/08 10:04:00;;;;;;;0.70;0.70;;;;;;;13.28;57.21;99354.16;5051740;28;20071;-83
2022/09/08 10:06:53;;;;;;;0.50;0.50;;;;;;;13.09;57.77;99356.31;5068596;28;20060;-83
2022/09/08 10:10:01;;;;;;;0.50;0.50;;;;;;;11.77;60.90;99367.59;5054889;28;20076;-83
2022/09/08 10:12:30;;;;;;;0.50;0.50;;;;;;;11.12;62.16;99371.50;5028477;28;20506;-82
2022/09/08 10:15:05;;;;;;;0.60;0.60;;;;;;;11.02;63.13;99369.41;5011854;28;20056;-83
2022/09/08 10:17:56;;;;;;;0.60;0.60;;;;;;;11.12;63.16;99374.22;5028560;28;20065;-84
2022/09/08 10:21:02;;;;;;;0.50;0.50;;;;;;;10.95;63.19;99384.09;5028798;28;20052;-83
2022/09/08 10:24:06;;;;;;;0.50;0.50;;;;;;;10.52;64.75;99391.53;5028787;28;20108;-82
2022/09/08 10:26:42;;;;;;;0.50;0.50;;;;;;;10.15;65.24;99393.56;5028155;28;20056;-83
2022/09/08 10:29:30;;;;;;;0.60;0.60;;;;;;;10.04;65.46;99389.00;5028411;28;20104;-83
2022/09/08 10:32:39;;;;;;;0.60;0.60;;;;;;;10.47;64.62;99393.28;5032895;28;20100;-83
2022/09/08 10:35:21;;;;;;;0.68;0.68;;;;;;;10.71;62.60;99394.09;5069169;28;20063;-83
2022/09/08 10:38:09;;;;;;;0.90;0.90;;;;;;;11.15;60.05;99387.22;5069518;28;20151;-83
2022/09/08 10:40:54;;;;;;;0.90;0.90;;;;;;;11.88;58.93;99384.88;5069159;28;20163;-82
2022/09/08 10:43:27;;;;;;;;;;;;;;;12.55;55.40;99389.44;5052096;28;20052;-83
2022/09/08 10:46:08;;;;;;;0.60;0.60;;;;;;;11.94;58.65;99389.28;5051745;28;20000;-84
2022/09/08 10:49:02;;;;;;;0.52;0.52;;;;;;;12.10;56.56;99395.78;5072336;28;20048;-83
2022/09/08 10:51:38;;;;;;;0.50;0.50;;;;;;;11.49;59.60;99398.16;5111948;28;20058;-84
2022/09/08 10:54:08;;;;;;;0.50;0.50;;;;;;;10.88;60.13;99405.00;5111938;28;20130;-84
2022/09/08 10:56:38;;;;;;;0.50;0.50;;;;;;;10.39;61.95;99400.69;5093462;28;20422;-82
2022/09/08 10:59:20;;;;;;;0.50;0.50;;;;;;;10.32;63.05;99408.06;5093252;28;20097;-84
2022/09/08 11:02:12;;;;;;;0.52;0.52;;;;;;;10.23;63.74;99412.13;5111264;28;20055;-84
2022/09/08 11:05:17;;;;;;;0.50;0.50;;;;;;;10.19;63.37;99416.34;5112243;28;20055;-86
2022/09/08 11:08:09;;;;;;;0.50;0.50;;;;;;;9.89;63.84;99427.16;5113554;28;20051;-85
2022/09/08 11:11:13;;;;;;;0.50;0.50;;;;;;;9.88;63.82;99425.53;5111634;28;20138;-84
2022/09/08 11:13:59;;;;;;;0.50;0.50;;;;;;;9.86;64.31;99427.63;5111158;28;20367;-84
2022/09/08 11:17:01;;;;;;;0.50;0.50;;;;;;;9.79;63.93;99430.41;5093550;28;20378;-83
2022/09/08 11:19:39;;;;;;;0.50;0.50;;;;;;;9.60;63.90;99426.94;5110220;28;20207;-86
2022/09/08 11:22:24;;;;;;;0.60;0.60;;;;;;;9.68;64.75;99425.81;5110768;28;20506;-82
2022/09/08 11:25:25;;;;;;;0.60;0.60;;;;;;;9.97;64.20;99435.72;5111041;28;20060;-83
2022/09/08 11:28:35;;;;;;;0.63;0.63;;;;;;;10.22;63.28;99432.06;5110081;28;20051;-83
2022/09/08 11:31:23;;;;;;;0.80;0.80;;;;;;;10.68;62.51;99435.88;5110736;28;20146;-84
2022/09/08 11:34:28;;;;;;;0.60;0.60;;;;;;;11.41;60.33;99428.28;5111395;28;20043;-84
2022/09/08 11:37:29;;;;;;;0.50;0.50;;;;;;;11.56;59.80;99431.28;5109642;28;20039;-83
2022/09/08 11:40:24;;;;;;;0.50;0.50;;;;;;;11.74;58.71;99427.56;5095708;28;20541;-84
2022/09/08 11:42:58;;;;;;;;;;;;;;;12.27;57.92;99433.66;5113991;28;20044;-83
2022/09/08 11:45:24;;;;;;;0.50;0.50;;;;;;;11.91;58.41;99433.06;5114352;28;19924;-84
2022/09/08 11:48:43;;;;;;;0.80;0.80;;;;;;;11.96;57.00;99422.31;5114565;28;20050;-83
2022/09/08 11:51:26;;;;;;;0.80;0.80;;;;;;;14.34;51.14;99428.72;5018497;28;20644;-82
2022/09/08 11:54:37;;;;;;;0.50;0.50;;;;;;;12.97;52.98;99425.00;5050775;28;20135;-84
2022/09/08 11:57:29;;;;;;;0.60;0.60;;;;;;;12.01;55.26;99438.66;5050797;28;20079;-82
2022/09/08 12:00:14;;;;;;;0.50;0.50;;;;;;;11.51;56.82;99428.47;5051171;28;20471;-82
2022/09/08 12:03:03;;;;;;;0.50;0.50;;;;;;;11.57;57.87;99440.19;5034984;28;20099;-83
2022/09/08 12:05:54;;;;;;;0.50;0.50;;;;;;;11.35;58.18;99435.47;5051191;28;20048;-84
2022/09/08 12:09:04;;;;;;;0.40;0.40;;;;;;;11.06;59.20;99445.38;5034337;28;20045;-83
2022/09/08 12:11:58;;;;;;;0.40;0.40;;;;;;;10.58;59.43;99447.28;5050918;28;20083;-83
2022/09/08 12:14:43;;;;;;;0.40;0.40;;;;;;;10.29;60.96;99443.59;5034599;28;20049;-82
2022/09/08 12:17:40;;;;;;;0.50;0.50;;;;;;;9.81;63.40;99449.88;5034309;28;20060;-82
2022/09/08 12:20:44;;;;;;;0.50;0.50;;;;;;;9.51;64.57;99450.66;5011162;28;20505;-82
2022/09/08 12:23:32;;;;;;;0.50;0.50;;;;;;;9.31;66.03;99452.78;5013469;28;20050;-82
2022/09/08 12:26:23;;;;;;;0.60;0.60;;;;;;;9.39;65.58;99449.78;5011192;28;20053;-81
2022/09/08 12:29:01;;;;;;;0.60;0.60;;;;;;;9.67;65.17;99448.41;5070766;28;20090;-81
2022/09/08 12:31:46;;;;;;;0.60;0.60;;;;;;;10.23;64.45;99449.91;5071611;28;20135;-82
2022/09/08 12:34:13;;;;;;;;;;;;;;;10.78;63.03;99460.41;5054576;28;20395;-83
2022/09/08 12:36:49;;;;;;;0.70;0.70;;;;;;;11.10;60.92;99456.53;5071193;28;20452;-81